Conceicao de Ipanema, Brazil
Current Conditions -  °F | °C
As of 8:00 PM on Thursday 23 Oct 2014 (Local Time) from SBVT Reporting Station
Broken Clouds Broken Clouds  
Wind Chill: 73°   Ceiling: 7000
Heat Index: 73°   Visibility: 6mi
Dew Point: 63°   Wind: 6mph
Humidity: 69%   Direction: 140°SE
Pressure: 30.09"   Gusts: NA
Location:  19.93°S, 41.69°W
Report Text: SBVT 232200Z 14005KT 9999 FEW020 BKN070 23/17 Q1019
Loading
Personal Weather Stations






























Interactive Weather Map
Tropical Storm Tracking
New forecast layout! Learn more

10-Day Weather Forecast

Advertisements
Track Severe Weather on mobile